Roanoke, TX (76262)

3:46 AM CDT on April 25, 2015 (GMT -0500)
KTXROANO2 | | Change Station
CLOSE
Current Station
Personal Weather Station
Location: Roanoke, TX
Elevation: 645 ft
Nearby Weather Stations
Active Advisory: Flood Warning

Elev 645 ft 33.01 °N, 97.23 °W | Updated 3 minutes ago

Mostly Cloudy
Mostly Cloudy
60.9 °F
Feels Like 60.9 °F
N
6.0
Wind Variable Wind from SW
Gusts 7.0 mph

Today
High -- | Low -- °F
--% Chance of Precip.
Yesterday
High -- | Low -- °F
Precip. -- in
6:47 AM 8:06 PM
Waxing Crescent, 44% visible
Pressure 29.66 in
Visibility 9.0 miles
Clouds Mostly Cloudy 27000 ft
Dew Point 60 °F
Humidity 97%
Rainfall 0.00 in
Snow Depth Not available.
UV 0.0 out of 12
Pollen 7.00 out of 12
Air Quality Not available.
Flu Activity Local Activity
METAR KAFW 250753Z 21005KT 9SM BKN270 14/14 A2968 RMK AO2 SLP044 T01390139

More Conditions Fewer Conditions

Pressure 29.66 in
Visibility 9.0 miles
Clouds Mostly Cloudy 27000 ft
Dew Point 60 °F
Humidity 97%
Rainfall 0.00 in
Snow Depth Not available.
UV 0.0 out of 12
Pollen 7.00 out of 12
Air Quality Not available.
Flu Activity Local Activity
METAR KAFW 250753Z 21005KT 9SM BKN270 14/14 A2968 RMK AO2 SLP044 T01390139

More Conditions Fewer Conditions

10-Day Weather Forecast

Almanac

Astronomy

Apr. 25, 2015 Rise Set
Actual Time
Civil Twilight
Nautical Twilight
Astronomical Twilight
Moon
Length of Visible Light
Length of Day
Tomorrow will be .
, % of the Moon is Illuminated

Today's Extremes

State Highs State Lows

Community

WunderPhotos

Upload Photos

1,816,624 photos uploaded!

WunderBlogs® & News

Nearby

Air Quality

  Air Quality AQ Index Pollutant
Not available.

Snow Depth

Station Depth Elevation

Earthquake Activity

City Distance Mag. Time & Date
Minimum magnitude displayed is 2.5.

Coastal Water Temperatures

Place Temperature

Stations

Nearby Weather Stations

Station Location Temp. Windchill Dew Point Humidity Wind Precip. Elev Updated Type
                   
Flood Warning
Statement as of 8:56 PM CDT on April 24, 2015

The Flood Warning continues for
the Denton creek near Justin.
* At 0800 PM Friday the stage was 11.51 feet.
* Flood stage is 10 feet.
* Minor flooding is occurring and minor flooding is forecast.
* Forecast... the river will continue rising to a crest near 12 feet
late Friday or early Saturday. The river should fall below flood
stage Saturday morning.
* At 15 feet water starts to cover FM 407.


Lat... Lon 3311 9738 3302 9727 3307 9715 3315 9726